Página principal
METAR-TAF:

METAR-TAF

Aeroportos :

Aeroporto Internacional Modibo Keita

Bamako, Mali

latitude: 12-32N, longitude: 007-57W, altura: 380 m

Observação actual do tempo

O boletim foi feito há 25 minutos, às 19:30 UTC
Vento 4 kt de noroeste
Temperatura 34°C
Humidade 25%
Pressão 1010 hPa
Visibilidade 10 km ou mais
sem nuvens abaixo de 1500 metros e sem cumulonimbus

METAR: GABS 251930Z 32004KT CAVOK 34/11 Q1010 NOSIG

Hora: 19:55 (19:55 UTC)

Previsão

O boletim foi feito há 2 horas e 55 minutos, às 17:00 UTC
Previsão válida de 25 às 18 UTC a 26 às 24 UTC
Vento 6 kt de oeste
Visibilidade 10 km ou mais
sem nuvens abaixo de 1500 metros e sem cumulonimbus

TAF: GABS 251700Z 2518/2624 28006KT CAVOK

Observações e previsões do tempo de mais de 4000 aeroportos (mensagens METAR e TAF).

As estações disponíveis são os pontos amarelos e vermelhos sobre o mapa.

Mova o rato sobre o mapa para ver o nome da estação.

Depois clique no ponto para visualizar as observações e previsões meteorológicas.

Para alterar o mapa : clique nos botões verdes com uma cruz preta para aumentar o zoom; no botão verde com uma pitada de zoom; ou nas setas verdes para mapas adjacentes.


METAR-TAF: